sensor_id;sensor_type;location;lat;lon;timestamp;temperature;humidity
23755;DHT22;12057;52.042;6.830;2023-03-14T00:01:31;11.80;99.90
23755;DHT22;12057;52.042;6.830;2023-03-14T00:06:32;11.80;99.90
23755;DHT22;12057;52.042;6.830;2023-03-14T00:11:33;11.80;99.90
23755;DHT22;12057;52.042;6.830;2023-03-14T00:16:33;11.80;99.90
23755;DHT22;12057;52.042;6.830;2023-03-14T00:21:34;11.80;99.90
23755;DHT22;12057;52.042;6.830;2023-03-14T00:26:35;11.80;99.90
23755;DHT22;12057;52.042;6.830;2023-03-14T00:31:36;11.80;99.90
23755;DHT22;12057;52.042;6.830;2023-03-14T00:36:37;11.80;99.90
23755;DHT22;12057;52.042;6.830;2023-03-14T00:41:38;11.70;99.90
23755;DHT22;12057;52.042;6.830;2023-03-14T00:46:39;11.70;99.90
23755;DHT22;12057;52.042;6.830;2023-03-14T00:51:39;11.80;99.90
23755;DHT22;12057;52.042;6.830;2023-03-14T00:56:40;11.70;99.90
23755;DHT22;12057;52.042;6.830;2023-03-14T01:01:41;11.70;99.90
23755;DHT22;12057;52.042;6.830;2023-03-14T01:06:42;11.70;99.90
23755;DHT22;12057;52.042;6.830;2023-03-14T01:11:43;11.70;99.90
23755;DHT22;12057;52.042;6.830;2023-03-14T01:16:46;11.70;99.90
23755;DHT22;12057;52.042;6.830;2023-03-14T01:21:47;11.50;99.90
23755;DHT22;12057;52.042;6.830;2023-03-14T01:26:48;11.50;99.90
23755;DHT22;12057;52.042;6.830;2023-03-14T01:31:49;11.30;99.90
23755;DHT22;12057;52.042;6.830;2023-03-14T01:36:49;11.30;99.90
23755;DHT22;12057;52.042;6.830;2023-03-14T01:41:50;11.20;99.90
23755;DHT22;12057;52.042;6.830;2023-03-14T01:46:51;11.20;99.90
23755;DHT22;12057;52.042;6.830;2023-03-14T01:52:10;11.10;99.90
23755;DHT22;12057;52.042;6.830;2023-03-14T02:02:13;11.10;99.90
23755;DHT22;12057;52.042;6.830;2023-03-14T02:07:25;11.10;99.90
23755;DHT22;12057;52.042;6.830;2023-03-14T02:12:28;11.10;99.90
23755;DHT22;12057;52.042;6.830;2023-03-14T02:17:30;11.10;99.90
23755;DHT22;12057;52.042;6.830;2023-03-14T02:22:31;11.10;99.90
23755;DHT22;12057;52.042;6.830;2023-03-14T02:27:33;11.10;99.90
23755;DHT22;12057;52.042;6.830;2023-03-14T02:32:34;11.10;99.90
23755;DHT22;12057;52.042;6.830;2023-03-14T02:37:57;11.10;99.90
23755;DHT22;12057;52.042;6.830;2023-03-14T02:43:00;11.10;99.90
23755;DHT22;12057;52.042;6.830;2023-03-14T02:48:06;11.10;99.90
23755;DHT22;12057;52.042;6.830;2023-03-14T02:53:08;11.10;99.90
23755;DHT22;12057;52.042;6.830;2023-03-14T02:58:08;11.00;99.90
23755;DHT22;12057;52.042;6.830;2023-03-14T03:03:09;11.10;99.90
23755;DHT22;12057;52.042;6.830;2023-03-14T03:08:10;11.00;99.90
23755;DHT22;12057;52.042;6.830;2023-03-14T03:13:11;10.90;99.90
23755;DHT22;12057;52.042;6.830;2023-03-14T03:18:12;10.80;99.90
23755;DHT22;12057;52.042;6.830;2023-03-14T03:23:13;10.70;99.90
23755;DHT22;12057;52.042;6.830;2023-03-14T03:28:14;10.70;99.90
23755;DHT22;12057;52.042;6.830;2023-03-14T03:33:15;10.60;99.90
23755;DHT22;12057;52.042;6.830;2023-03-14T03:38:16;10.50;99.90
23755;DHT22;12057;52.042;6.830;2023-03-14T03:43:17;10.40;99.90
23755;DHT22;12057;52.042;6.830;2023-03-14T03:48:18;10.40;99.90
23755;DHT22;12057;52.042;6.830;2023-03-14T03:53:19;10.40;99.90
23755;DHT22;12057;52.042;6.830;2023-03-14T03:58:20;10.40;99.90
23755;DHT22;12057;52.042;6.830;2023-03-14T04:03:20;10.40;99.90
23755;DHT22;12057;52.042;6.830;2023-03-14T04:08:21;10.40;99.90
23755;DHT22;12057;52.042;6.830;2023-03-14T04:13:22;10.30;99.90
23755;DHT22;12057;52.042;6.830;2023-03-14T04:18:23;10.30;99.90
23755;DHT22;12057;52.042;6.830;2023-03-14T04:23:26;10.20;99.90
23755;DHT22;12057;52.042;6.830;2023-03-14T04:28:30;10.10;99.90
23755;DHT22;12057;52.042;6.830;2023-03-14T04:33:31;10.10;99.90
23755;DHT22;12057;52.042;6.830;2023-03-14T04:38:32;10.00;99.90
23755;DHT22;12057;52.042;6.830;2023-03-14T04:43:33;10.10;99.90
23755;DHT22;12057;52.042;6.830;2023-03-14T04:48:33;10.10;99.90
23755;DHT22;12057;52.042;6.830;2023-03-14T04:53:34;10.10;99.90
23755;DHT22;12057;52.042;6.830;2023-03-14T04:58:37;10.10;99.90
23755;DHT22;12057;52.042;6.830;2023-03-14T05:03:38;10.10;99.90
23755;DHT22;12057;52.042;6.830;2023-03-14T05:08:39;10.20;99.90
23755;DHT22;12057;52.042;6.830;2023-03-14T05:13:39;10.20;99.90
23755;DHT22;12057;52.042;6.830;2023-03-14T05:18:40;10.20;99.90
23755;DHT22;12057;52.042;6.830;2023-03-14T05:23:41;10.20;99.90
23755;DHT22;12057;52.042;6.830;2023-03-14T05:28:42;10.20;99.90
23755;DHT22;12057;52.042;6.830;2023-03-14T05:33:43;10.20;99.90
23755;DHT22;12057;52.042;6.830;2023-03-14T05:38:44;10.20;99.90
23755;DHT22;12057;52.042;6.830;2023-03-14T05:43:45;10.20;99.90
23755;DHT22;12057;52.042;6.830;2023-03-14T05:48:45;10.10;99.90
23755;DHT22;12057;52.042;6.830;2023-03-14T05:53:46;10.20;99.90
23755;DHT22;12057;52.042;6.830;2023-03-14T05:58:47;10.20;99.90
23755;DHT22;12057;52.042;6.830;2023-03-14T06:03:47;10.20;99.90
23755;DHT22;12057;52.042;6.830;2023-03-14T06:08:48;10.20;99.90
23755;DHT22;12057;52.042;6.830;2023-03-14T06:13:49;10.30;99.90
23755;DHT22;12057;52.042;6.830;2023-03-14T06:18:49;10.30;99.90
23755;DHT22;12057;52.042;6.830;2023-03-14T06:23:50;10.30;99.90
23755;DHT22;12057;52.042;6.830;2023-03-14T06:28:51;10.30;99.90
23755;DHT22;12057;52.042;6.830;2023-03-14T06:33:53;10.20;99.90
23755;DHT22;12057;52.042;6.830;2023-03-14T06:38:57;10.20;99.90
23755;DHT22;12057;52.042;6.830;2023-03-14T06:43:59;10.20;99.90
23755;DHT22;12057;52.042;6.830;2023-03-14T06:49:00;10.20;99.90
23755;DHT22;12057;52.042;6.830;2023-03-14T06:54:00;10.10;99.90
23755;DHT22;12057;52.042;6.830;2023-03-14T06:59:01;10.10;99.90
23755;DHT22;12057;52.042;6.830;2023-03-14T07:04:02;10.30;99.90
23755;DHT22;12057;52.042;6.830;2023-03-14T07:09:03;10.30;99.90
23755;DHT22;12057;52.042;6.830;2023-03-14T07:14:04;10.40;99.90
23755;DHT22;12057;52.042;6.830;2023-03-14T07:19:04;10.40;99.90
23755;DHT22;12057;52.042;6.830;2023-03-14T07:24:05;10.50;99.90
23755;DHT22;12057;52.042;6.830;2023-03-14T07:29:12;10.50;99.90
23755;DHT22;12057;52.042;6.830;2023-03-14T07:34:13;10.50;99.90
23755;DHT22;12057;52.042;6.830;2023-03-14T07:39:14;10.50;99.90
23755;DHT22;12057;52.042;6.830;2023-03-14T07:44:15;10.50;99.90
23755;DHT22;12057;52.042;6.830;2023-03-14T07:49:15;10.50;99.90
23755;DHT22;12057;52.042;6.830;2023-03-14T07:54:16;10.50;99.90
23755;DHT22;12057;52.042;6.830;2023-03-14T07:59:18;10.50;99.90
23755;DHT22;12057;52.042;6.830;2023-03-14T08:04:18;10.60;99.90
23755;DHT22;12057;52.042;6.830;2023-03-14T08:09:19;10.60;99.90
23755;DHT22;12057;52.042;6.830;2023-03-14T08:14:20;10.60;99.90
23755;DHT22;12057;52.042;6.830;2023-03-14T08:19:24;10.60;99.90
23755;DHT22;12057;52.042;6.830;2023-03-14T08:24:25;10.60;99.90
23755;DHT22;12057;52.042;6.830;2023-03-14T08:29:26;10.60;99.90
23755;DHT22;12057;52.042;6.830;2023-03-14T08:34:27;10.50;99.90
23755;DHT22;12057;52.042;6.830;2023-03-14T08:39:27;10.50;99.90
23755;DHT22;12057;52.042;6.830;2023-03-14T08:44:28;10.50;99.90
23755;DHT22;12057;52.042;6.830;2023-03-14T08:49:29;10.10;99.90
23755;DHT22;12057;52.042;6.830;2023-03-14T08:54:30;9.50;99.90
23755;DHT22;12057;52.042;6.830;2023-03-14T08:59:31;9.10;99.90
23755;DHT22;12057;52.042;6.830;2023-03-14T09:04:32;9.00;99.90
23755;DHT22;12057;52.042;6.830;2023-03-14T09:09:33;8.70;99.90
23755;DHT22;12057;52.042;6.830;2023-03-14T09:14:34;8.60;99.90
23755;DHT22;12057;52.042;6.830;2023-03-14T09:19:35;8.60;99.90
23755;DHT22;12057;52.042;6.830;2023-03-14T09:24:36;8.50;99.90
23755;DHT22;12057;52.042;6.830;2023-03-14T09:29:37;8.50;99.90
23755;DHT22;12057;52.042;6.830;2023-03-14T09:34:38;8.30;99.90
23755;DHT22;12057;52.042;6.830;2023-03-14T09:39:38;8.20;99.90
23755;DHT22;12057;52.042;6.830;2023-03-14T09:49:56;7.50;99.90
23755;DHT22;12057;52.042;6.830;2023-03-14T09:54:57;7.10;99.90
23755;DHT22;12057;52.042;6.830;2023-03-14T10:00:03;6.90;99.90
23755;DHT22;12057;52.042;6.830;2023-03-14T10:05:19;6.80;99.90
23755;DHT22;12057;52.042;6.830;2023-03-14T10:10:23;6.60;99.90
23755;DHT22;12057;52.042;6.830;2023-03-14T10:15:29;6.50;99.90
23755;DHT22;12057;52.042;6.830;2023-03-14T10:20:39;6.40;99.90
23755;DHT22;12057;52.042;6.830;2023-03-14T10:25:59;6.50;99.90
23755;DHT22;12057;52.042;6.830;2023-03-14T10:31:01;6.60;99.90
23755;DHT22;12057;52.042;6.830;2023-03-14T10:41:30;6.60;99.90
23755;DHT22;12057;52.042;6.830;2023-03-14T10:46:32;6.50;99.90
23755;DHT22;12057;52.042;6.830;2023-03-14T10:51:34;6.80;99.90
23755;DHT22;12057;52.042;6.830;2023-03-14T10:56:36;7.00;99.90
23755;DHT22;12057;52.042;6.830;2023-03-14T11:01:55;6.90;99.90
23755;DHT22;12057;52.042;6.830;2023-03-14T11:07:07;6.80;99.90
23755;DHT22;12057;52.042;6.830;2023-03-14T11:28:22;7.40;99.90
23755;DHT22;12057;52.042;6.830;2023-03-14T11:34:07;7.50;99.90
23755;DHT22;12057;52.042;6.830;2023-03-14T11:39:15;7.40;99.90
23755;DHT22;12057;52.042;6.830;2023-03-14T11:44:24;7.10;99.90
23755;DHT22;12057;52.042;6.830;2023-03-14T11:54:57;6.70;99.90
23755;DHT22;12057;52.042;6.830;2023-03-14T12:00:18;6.50;99.90
23755;DHT22;12057;52.042;6.830;2023-03-14T12:10:26;6.40;99.90
23755;DHT22;12057;52.042;6.830;2023-03-14T12:15:27;6.50;99.90
23755;DHT22;12057;52.042;6.830;2023-03-14T12:20:28;6.80;99.90
23755;DHT22;12057;52.042;6.830;2023-03-14T12:25:33;7.00;99.90
23755;DHT22;12057;52.042;6.830;2023-03-14T12:30:41;7.30;99.90
23755;DHT22;12057;52.042;6.830;2023-03-14T12:35:50;7.40;99.90
23755;DHT22;12057;52.042;6.830;2023-03-14T12:46:26;8.20;99.90
23755;DHT22;12057;52.042;6.830;2023-03-14T12:51:39;8.50;99.90
23755;DHT22;12057;52.042;6.830;2023-03-14T13:17:48;8.20;99.90
23755;DHT22;12057;52.042;6.830;2023-03-14T13:22:50;8.20;99.90
23755;DHT22;12057;52.042;6.830;2023-03-14T13:27:54;8.40;99.90
23755;DHT22;12057;52.042;6.830;2023-03-14T13:32:55;8.40;99.90
23755;DHT22;12057;52.042;6.830;2023-03-14T13:38:01;8.60;99.90
23755;DHT22;12057;52.042;6.830;2023-03-14T13:43:13;9.10;99.90
23755;DHT22;12057;52.042;6.830;2023-03-14T13:48:15;9.70;99.90
23755;DHT22;12057;52.042;6.830;2023-03-14T13:53:17;9.40;99.90
23755;DHT22;12057;52.042;6.830;2023-03-14T13:58:27;9.60;99.90
23755;DHT22;12057;52.042;6.830;2023-03-14T14:03:33;10.10;99.90
23755;DHT22;12057;52.042;6.830;2023-03-14T14:08:35;9.40;99.90
23755;DHT22;12057;52.042;6.830;2023-03-14T14:13:35;9.50;99.90
23755;DHT22;12057;52.042;6.830;2023-03-14T14:18:36;9.50;99.90
23755;DHT22;12057;52.042;6.830;2023-03-14T14:23:37;9.40;99.90
23755;DHT22;12057;52.042;6.830;2023-03-14T14:28:39;9.90;99.90
23755;DHT22;12057;52.042;6.830;2023-03-14T14:39:04;9.40;99.90
23755;DHT22;12057;52.042;6.830;2023-03-14T14:44:06;9.30;99.90
23755;DHT22;12057;52.042;6.830;2023-03-14T14:49:13;9.20;99.90
23755;DHT22;12057;52.042;6.830;2023-03-14T14:54:17;8.70;99.90
23755;DHT22;12057;52.042;6.830;2023-03-14T14:59:27;9.00;99.90
23755;DHT22;12057;52.042;6.830;2023-03-14T15:04:35;9.00;99.90
23755;DHT22;12057;52.042;6.830;2023-03-14T15:09:36;8.70;97.70
23755;DHT22;12057;52.042;6.830;2023-03-14T15:14:36;8.40;98.10
23755;DHT22;12057;52.042;6.830;2023-03-14T15:19:40;8.30;98.70
23755;DHT22;12057;52.042;6.830;2023-03-14T15:24:42;8.30;98.90
23755;DHT22;12057;52.042;6.830;2023-03-14T15:29:43;8.00;98.70
23755;DHT22;12057;52.042;6.830;2023-03-14T15:34:44;7.90;99.90
23755;DHT22;12057;52.042;6.830;2023-03-14T15:39:45;8.20;99.90
23755;DHT22;12057;52.042;6.830;2023-03-14T15:44:46;8.10;99.90
23755;DHT22;12057;52.042;6.830;2023-03-14T15:49:47;7.80;99.90
23755;DHT22;12057;52.042;6.830;2023-03-14T15:54:48;7.60;99.90
23755;DHT22;12057;52.042;6.830;2023-03-14T15:59:48;7.50;99.90
23755;DHT22;12057;52.042;6.830;2023-03-14T16:04:49;7.50;99.90
23755;DHT22;12057;52.042;6.830;2023-03-14T16:09:50;7.30;99.90
23755;DHT22;12057;52.042;6.830;2023-03-14T16:14:51;7.20;99.90
23755;DHT22;12057;52.042;6.830;2023-03-14T16:19:52;7.10;99.90
23755;DHT22;12057;52.042;6.830;2023-03-14T16:24:52;7.00;99.90
23755;DHT22;12057;52.042;6.830;2023-03-14T16:29:53;6.90;99.90
23755;DHT22;12057;52.042;6.830;2023-03-14T16:34:54;6.80;99.90
23755;DHT22;12057;52.042;6.830;2023-03-14T16:39:59;6.70;99.90
23755;DHT22;12057;52.042;6.830;2023-03-14T16:45:06;6.70;99.90
23755;DHT22;12057;52.042;6.830;2023-03-14T16:50:07;6.70;99.90
23755;DHT22;12057;52.042;6.830;2023-03-14T16:55:08;6.60;99.90
23755;DHT22;12057;52.042;6.830;2023-03-14T17:00:10;6.50;99.90
23755;DHT22;12057;52.042;6.830;2023-03-14T17:05:11;6.30;99.90
23755;DHT22;12057;52.042;6.830;2023-03-14T17:10:12;6.30;99.90
23755;DHT22;12057;52.042;6.830;2023-03-14T17:15:12;6.20;99.90
23755;DHT22;12057;52.042;6.830;2023-03-14T17:20:13;6.10;99.90
23755;DHT22;12057;52.042;6.830;2023-03-14T17:25:14;6.10;99.90
23755;DHT22;12057;52.042;6.830;2023-03-14T17:30:15;5.90;99.90
23755;DHT22;12057;52.042;6.830;2023-03-14T17:35:16;5.90;99.90
23755;DHT22;12057;52.042;6.830;2023-03-14T17:40:17;5.80;99.90
23755;DHT22;12057;52.042;6.830;2023-03-14T17:45:18;5.80;99.90
23755;DHT22;12057;52.042;6.830;2023-03-14T17:50:19;5.80;99.90
23755;DHT22;12057;52.042;6.830;2023-03-14T17:55:20;5.70;99.90
23755;DHT22;12057;52.042;6.830;2023-03-14T18:00:22;5.70;99.90
23755;DHT22;12057;52.042;6.830;2023-03-14T18:05:23;5.70;99.90
23755;DHT22;12057;52.042;6.830;2023-03-14T18:10:24;5.70;99.90
23755;DHT22;12057;52.042;6.830;2023-03-14T18:15:25;5.60;99.90
23755;DHT22;12057;52.042;6.830;2023-03-14T18:20:29;5.60;99.90
23755;DHT22;12057;52.042;6.830;2023-03-14T18:25:33;5.60;99.90
23755;DHT22;12057;52.042;6.830;2023-03-14T18:30:34;5.50;99.90
23755;DHT22;12057;52.042;6.830;2023-03-14T18:35:38;5.40;99.90
23755;DHT22;12057;52.042;6.830;2023-03-14T18:40:38;5.30;99.90
23755;DHT22;12057;52.042;6.830;2023-03-14T18:45:39;5.30;99.90
23755;DHT22;12057;52.042;6.830;2023-03-14T18:50:40;5.30;99.90
23755;DHT22;12057;52.042;6.830;2023-03-14T18:55:41;5.10;99.90
23755;DHT22;12057;52.042;6.830;2023-03-14T19:00:42;5.10;99.90
23755;DHT22;12057;52.042;6.830;2023-03-14T19:05:43;5.00;99.90
23755;DHT22;12057;52.042;6.830;2023-03-14T19:10:44;4.90;99.90
23755;DHT22;12057;52.042;6.830;2023-03-14T19:15:45;4.70;99.90
23755;DHT22;12057;52.042;6.830;2023-03-14T19:20:55;4.60;99.90
23755;DHT22;12057;52.042;6.830;2023-03-14T19:25:57;4.40;99.90
23755;DHT22;12057;52.042;6.830;2023-03-14T19:31:00;4.30;99.90
23755;DHT22;12057;52.042;6.830;2023-03-14T19:36:01;4.30;99.90
23755;DHT22;12057;52.042;6.830;2023-03-14T19:41:02;4.20;99.90
23755;DHT22;12057;52.042;6.830;2023-03-14T19:46:02;4.10;99.90
23755;DHT22;12057;52.042;6.830;2023-03-14T19:51:05;4.10;99.90
23755;DHT22;12057;52.042;6.830;2023-03-14T19:56:07;4.10;99.90
23755;DHT22;12057;52.042;6.830;2023-03-14T20:01:08;4.00;99.90
23755;DHT22;12057;52.042;6.830;2023-03-14T20:06:10;3.90;99.90
23755;DHT22;12057;52.042;6.830;2023-03-14T20:11:12;3.90;99.90
23755;DHT22;12057;52.042;6.830;2023-03-14T20:16:12;3.80;99.90
23755;DHT22;12057;52.042;6.830;2023-03-14T20:21:13;3.70;99.90
23755;DHT22;12057;52.042;6.830;2023-03-14T20:26:14;3.70;99.90
23755;DHT22;12057;52.042;6.830;2023-03-14T20:31:15;3.60;99.90
23755;DHT22;12057;52.042;6.830;2023-03-14T20:36:16;3.50;99.90
23755;DHT22;12057;52.042;6.830;2023-03-14T20:41:16;3.40;99.90
23755;DHT22;12057;52.042;6.830;2023-03-14T20:46:17;3.30;99.90
23755;DHT22;12057;52.042;6.830;2023-03-14T20:51:18;3.30;99.90
23755;DHT22;12057;52.042;6.830;2023-03-14T20:56:19;3.30;99.90
23755;DHT22;12057;52.042;6.830;2023-03-14T21:01:20;3.20;99.90
23755;DHT22;12057;52.042;6.830;2023-03-14T21:06:22;3.20;99.90
23755;DHT22;12057;52.042;6.830;2023-03-14T21:11:23;3.10;99.90
23755;DHT22;12057;52.042;6.830;2023-03-14T21:16:24;3.00;99.90
23755;DHT22;12057;52.042;6.830;2023-03-14T21:21:25;3.00;99.90
23755;DHT22;12057;52.042;6.830;2023-03-14T21:26:25;2.90;99.90
23755;DHT22;12057;52.042;6.830;2023-03-14T21:31:26;2.90;99.90
23755;DHT22;12057;52.042;6.830;2023-03-14T21:36:27;2.90;99.90
23755;DHT22;12057;52.042;6.830;2023-03-14T21:41:28;2.90;99.90
23755;DHT22;12057;52.042;6.830;2023-03-14T21:46:29;2.90;99.90
23755;DHT22;12057;52.042;6.830;2023-03-14T21:51:30;3.00;99.90
23755;DHT22;12057;52.042;6.830;2023-03-14T21:56:36;3.10;99.90
23755;DHT22;12057;52.042;6.830;2023-03-14T22:01:37;3.20;99.90
23755;DHT22;12057;52.042;6.830;2023-03-14T22:06:38;3.10;99.90
23755;DHT22;12057;52.042;6.830;2023-03-14T22:11:38;3.20;99.90
23755;DHT22;12057;52.042;6.830;2023-03-14T22:16:39;3.30;99.90
23755;DHT22;12057;52.042;6.830;2023-03-14T22:21:40;3.20;99.90
23755;DHT22;12057;52.042;6.830;2023-03-14T22:26:41;3.20;99.90
23755;DHT22;12057;52.042;6.830;2023-03-14T22:31:41;3.40;99.90
23755;DHT22;12057;52.042;6.830;2023-03-14T22:36:42;3.40;99.90
23755;DHT22;12057;52.042;6.830;2023-03-14T22:41:46;3.60;99.90
23755;DHT22;12057;52.042;6.830;2023-03-14T22:46:47;3.60;99.90
23755;DHT22;12057;52.042;6.830;2023-03-14T22:51:47;3.70;99.90
23755;DHT22;12057;52.042;6.830;2023-03-14T22:56:48;3.70;99.90
23755;DHT22;12057;52.042;6.830;2023-03-14T23:01:49;3.70;99.90
23755;DHT22;12057;52.042;6.830;2023-03-14T23:06:50;3.70;99.90
23755;DHT22;12057;52.042;6.830;2023-03-14T23:11:50;3.80;99.90
23755;DHT22;12057;52.042;6.830;2023-03-14T23:16:51;3.80;99.90
23755;DHT22;12057;52.042;6.830;2023-03-14T23:21:55;3.80;99.90
23755;DHT22;12057;52.042;6.830;2023-03-14T23:26:56;3.90;99.90
23755;DHT22;12057;52.042;6.830;2023-03-14T23:31:56;3.80;99.90
23755;DHT22;12057;52.042;6.830;2023-03-14T23:36:57;3.80;99.90
23755;DHT22;12057;52.042;6.830;2023-03-14T23:41:58;3.70;99.90
23755;DHT22;12057;52.042;6.830;2023-03-14T23:46:59;3.60;99.90
23755;DHT22;12057;52.042;6.830;2023-03-14T23:51:59;3.50;99.90
23755;DHT22;12057;52.042;6.830;2023-03-14T23:57:00;3.30;99.90
